Terminal Aerodrome Forecast
Issued by NWS

Home | Current Version | Previous Version | Text Only | Print | Product List | Glossary On
Versions: 1 2 3 4 5 6 7 8 9 10 11 12
000
FTUS44 KOUN 281741
TAFPNC
TAF
KPNC 281741Z 2818/2918 36006KT P6SM SCT025 BKN180
      TEMPO 2818/2820 BKN025
     FM290000 06009KT P6SM OVC050
     FM290400 04015G22KT 3SM TSRA OVC015CB
     FM291300 02018G25KT 5SM SHRA OVC015=

USA.gov is the U.S. government's official web portal to all federal, state and local government web resources and services.